Time;durP1;ratioP1;P1;durP2;ratioP2;P2;SDS_P1;SDS_P2;PMS_P1;PMS_P2;Temp;Humidity;BMP_temperature;BMP_pressure;BME280_temperature;BME280_humidity;BME280_pressure;Samples;Min_cycle;Max_cycle;Signal;HPM_P1;HPM_P2
2021/10/24 00:03:09;;;;;;;8.65;3.87;;;6.20;99.90;;;;;;6650162;88;20339;-75
2021/10/24 00:13:10;;;;;;;6.57;3.90;;;6.20;99.90;;;;;;6640052;89;20636;-76
2021/10/24 00:23:13;;;;;;;7.37;3.65;;;6.10;99.90;;;;;;6642394;89;20713;-76
2021/10/24 00:33:15;;;;;;;10.18;4.15;;;6.00;99.90;;;;;;6647435;89;20235;-77
2021/10/24 00:43:15;;;;;;;7.60;3.80;;;6.00;99.90;;;;;;6658922;88;20194;-75
2021/10/24 00:53:17;;;;;;;8.95;4.10;;;6.00;99.90;;;;;;6649332;88;20619;-76
2021/10/24 01:03:17;;;;;;;10.05;4.35;;;6.00;99.90;;;;;;6654801;88;20318;-75
2021/10/24 01:13:18;;;;;;;12.15;4.50;;;5.90;99.90;;;;;;6654304;88;20190;-75
2021/10/24 01:23:22;;;;;;;9.30;4.18;;;5.80;99.90;;;;;;6651826;88;22591;-75
2021/10/24 01:33:23;;;;;;;10.50;4.82;;;5.60;99.90;;;;;;6647595;88;20275;-74
2021/10/24 01:43:25;;;;;;;8.80;4.15;;;5.60;99.90;;;;;;6662951;88;20353;-76
2021/10/24 01:53:29;;;;;;;8.90;4.57;;;5.50;99.90;;;;;;6641866;88;20192;-76
2021/10/24 02:03:30;;;;;;;10.18;5.25;;;5.40;99.90;;;;;;6642327;88;20234;-76
2021/10/24 02:13:30;;;;;;;9.95;4.78;;;5.20;99.90;;;;;;6642284;88;20214;-75
2021/10/24 02:23:31;;;;;;;10.77;5.53;;;5.10;99.90;;;;;;6639106;88;20237;-76
2021/10/24 02:33:31;;;;;;;10.15;5.25;;;5.00;99.90;;;;;;6640594;88;20227;-75
2021/10/24 02:43:32;;;;;;;11.35;5.62;;;5.00;99.90;;;;;;6645758;88;20165;-76
2021/10/24 02:53:32;;;;;;;11.27;5.68;;;4.90;99.90;;;;;;6640029;88;20235;-75
2021/10/24 03:03:33;;;;;;;12.27;5.85;;;4.90;99.90;;;;;;6639593;88;20198;-76
2021/10/24 03:13:33;;;;;;;15.52;6.43;;;4.90;99.90;;;;;;6644021;88;20215;-76
2021/10/24 03:23:34;;;;;;;11.60;6.15;;;4.90;99.90;;;;;;6645891;88;20656;-75
2021/10/24 03:33:34;;;;;;;11.15;5.80;;;4.70;99.90;;;;;;6659685;88;20934;-74
2021/10/24 03:43:35;;;;;;;11.98;6.20;;;4.60;99.90;;;;;;6661247;88;20234;-76
2021/10/24 03:53:35;;;;;;;12.80;5.60;;;4.60;99.90;;;;;;6644534;88;20288;-76
2021/10/24 04:03:36;;;;;;;11.97;6.03;;;4.60;99.90;;;;;;6645404;88;20203;-76
2021/10/24 04:13:36;;;;;;;13.65;5.85;;;4.50;99.90;;;;;;6639953;88;20507;-75
2021/10/24 04:23:37;;;;;;;16.00;7.12;;;4.30;99.90;;;;;;6643223;88;20180;-75
2021/10/24 04:33:38;;;;;;;15.15;7.22;;;4.20;99.90;;;;;;6636996;88;20661;-75
2021/10/24 04:43:38;;;;;;;16.83;6.70;;;4.10;99.90;;;;;;6636640;88;20200;-75
2021/10/24 04:53:39;;;;;;;13.07;7.03;;;4.10;99.90;;;;;;6650281;88;20201;-75
2021/10/24 05:03:39;;;;;;;16.73;8.50;;;4.00;99.90;;;;;;6651148;88;20311;-77
2021/10/24 05:13:40;;;;;;;17.75;7.47;;;3.90;99.90;;;;;;6640539;88;20395;-75
2021/10/24 05:23:41;;;;;;;16.55;7.80;;;3.70;99.90;;;;;;6639661;88;20253;-76
2021/10/24 05:33:42;;;;;;;18.65;9.07;;;3.60;99.90;;;;;;6637597;88;20363;-75
2021/10/24 05:43:42;;;;;;;23.23;8.35;;;3.50;99.90;;;;;;6643717;88;20287;-75
2021/10/24 05:53:43;;;;;;;29.37;10.43;;;3.60;99.90;;;;;;6641322;88;20278;-75
2021/10/24 06:03:43;;;;;;;24.77;11.60;;;3.80;99.90;;;;;;6635562;88;20215;-75
2021/10/24 06:13:47;;;;;;;20.48;9.90;;;3.90;99.90;;;;;;6646222;88;20689;-78
2021/10/24 06:23:47;;;;;;;18.15;9.55;;;4.00;99.90;;;;;;6665929;88;20208;-74
2021/10/24 06:33:48;;;;;;;18.33;8.07;;;4.10;99.90;;;;;;6651750;88;20193;-75
2021/10/24 06:43:48;;;;;;;14.63;7.45;;;4.00;99.90;;;;;;6645828;88;20725;-74
2021/10/24 06:53:49;;;;;;;17.52;8.18;;;3.80;99.90;;;;;;6662026;88;20216;-76
2021/10/24 07:03:49;;;;;;;15.98;7.80;;;3.80;99.90;;;;;;6652712;88;20286;-77
2021/10/24 07:13:50;;;;;;;17.85;7.60;;;3.90;99.90;;;;;;6662592;88;20204;-76
2021/10/24 07:23:51;;;;;;;17.23;7.85;;;3.90;99.90;;;;;;6652766;88;20721;-77
2021/10/24 07:33:51;;;;;;;15.77;8.10;;;4.30;99.90;;;;;;6656795;88;20176;-77
2021/10/24 07:43:52;;;;;;;15.20;7.03;;;4.50;99.90;;;;;;6654020;88;20216;-76
2021/10/24 07:53:53;;;;;;;15.77;7.70;;;4.80;99.90;;;;;;6647542;88;20694;-76
2021/10/24 08:03:53;;;;;;;14.40;6.50;;;5.30;99.90;;;;;;6653039;88;20347;-77
2021/10/24 08:13:54;;;;;;;14.20;7.12;;;6.00;99.90;;;;;;6651149;88;20508;-77
2021/10/24 08:23:55;;;;;;;12.90;6.68;;;6.40;99.90;;;;;;6655698;88;20212;-75
2021/10/24 08:33:57;;;;;;;11.10;5.37;;;7.10;99.90;;;;;;6645593;88;20724;-77
2021/10/24 08:43:59;;;;;;;7.55;4.25;;;7.60;99.90;;;;;;6655830;88;21448;-76
2021/10/24 08:54:01;;;;;;;9.95;3.20;;;8.30;99.90;;;;;;6641576;88;20235;-75
2021/10/24 09:04:12;;;;;;;5.53;3.37;;;8.60;99.90;;;;;;6635188;88;20254;-76
2021/10/24 09:14:33;;;;;;;5.37;2.65;;;9.20;99.90;;;;;;6639365;88;20187;-75
2021/10/24 09:24:33;;;;;;;5.03;2.45;;;9.30;99.90;;;;;;6638770;88;20204;-76
2021/10/24 09:34:34;;;;;;;5.10;2.60;;;9.10;99.90;;;;;;6656116;88;20222;-76
2021/10/24 09:44:34;;;;;;;5.85;2.75;;;9.60;99.90;;;;;;6653090;88;21010;-77
2021/10/24 09:54:47;;;;;;;7.45;2.75;;;10.00;99.90;;;;;;6639761;88;20184;-76
2021/10/24 10:04:48;;;;;;;6.43;2.05;;;10.30;99.90;;;;;;6638350;88;20244;-76
2021/10/24 10:14:57;;;;;;;5.82;2.22;;;10.80;99.90;;;;;;6640775;88;20190;-76
2021/10/24 10:25:07;;;;;;;4.43;2.25;;;10.70;99.90;;;;;;6638480;88;20274;-76
2021/10/24 10:35:18;;;;;;;6.82;2.70;;;10.70;99.90;;;;;;6637064;88;20306;-76
2021/10/24 10:45:36;;;;;;;7.05;2.40;;;11.20;99.90;;;;;;6641668;88;20220;-76
2021/10/24 10:55:55;;;;;;;5.03;2.15;;;11.70;99.90;;;;;;6659516;88;20198;-76
2021/10/24 11:05:56;;;;;;;4.35;2.33;;;12.20;99.90;;;;;;6650301;88;20177;-77
2021/10/24 11:16:16;;;;;;;5.82;2.40;;;12.40;99.90;;;;;;6666552;88;20331;-75
2021/10/24 11:26:17;;;;;;;7.37;2.62;;;12.60;99.90;;;;;;6643397;89;20215;-75
2021/10/24 11:36:22;;;;;;;4.75;2.30;;;12.70;99.90;;;;;;6660261;88;20659;-74
2021/10/24 11:46:22;;;;;;;4.55;2.10;;;12.60;99.90;;;;;;6639475;88;20260;-74
2021/10/24 12:06:49;;;;;;;8.25;2.45;;;13.20;99.90;;;;;;6637991;88;20210;-75
2021/10/24 12:16:50;;;;;;;;;;;13.60;99.90;;;;;;6655425;88;20188;-75
2021/10/24 12:27:05;;;;;;;4.32;2.15;;;13.90;99.90;;;;;;6631110;88;20076;-75
2021/10/24 12:37:18;;;;;;;5.93;2.20;;;14.00;99.90;;;;;;6637964;88;20244;-75
2021/10/24 12:47:20;;;;;;;5.82;2.75;;;14.70;99.90;;;;;;6658034;88;20201;-75
2021/10/24 12:57:21;;;;;;;6.10;2.50;;;14.70;99.90;;;;;;6657150;88;20312;-74
2021/10/24 13:07:21;;;;;;;4.05;2.05;;;15.50;99.90;;;;;;6628406;89;20331;-76
2021/10/24 13:17:22;;;;;;;6.20;2.58;;;15.60;99.90;;;;;;6633153;88;20200;-76
2021/10/24 13:27:22;;;;;;;5.60;2.12;;;15.50;99.90;;;;;;6640797;88;20226;-75
2021/10/24 13:37:23;;;;;;;5.55;2.30;;;15.30;99.90;;;;;;6628728;89;20712;-74
2021/10/24 13:47:23;;;;;;;4.93;2.45;;;15.40;99.90;;;;;;6691754;88;20329;-77
2021/10/24 13:57:24;;;;;;;3.40;2.00;;;15.90;99.90;;;;;;6714251;88;20667;-77
2021/10/24 14:07:25;;;;;;;5.15;1.98;;;16.30;99.90;;;;;;6731036;88;20724;-76
2021/10/24 14:17:25;;;;;;;7.83;2.10;;;15.70;99.90;;;;;;6661579;88;20263;-76
2021/10/24 14:27:26;;;;;;;7.00;2.33;;;15.90;99.90;;;;;;6648383;89;20700;-79
2021/10/24 14:37:27;;;;;;;5.40;2.05;;;15.80;99.90;;;;;;6680321;88;20255;-77
2021/10/24 14:47:28;;;;;;;3.35;2.10;;;15.80;99.90;;;;;;6716917;88;20234;-77
2021/10/24 14:57:28;;;;;;;4.62;2.40;;;15.40;99.90;;;;;;6654651;88;20320;-77
2021/10/24 15:07:29;;;;;;;4.83;2.17;;;15.10;99.90;;;;;;6695503;88;20349;-76
2021/10/24 15:17:43;;;;;;;5.60;2.05;;;14.80;99.90;;;;;;6725636;88;20489;-78
2021/10/24 15:27:43;;;;;;;4.62;1.75;;;14.60;99.90;;;;;;6733608;88;20186;-77
2021/10/24 15:37:44;;;;;;;5.45;2.40;;;14.60;99.90;;;;;;6676863;88;20589;-76
2021/10/24 15:47:45;;;;;;;5.50;2.28;;;14.40;99.90;;;;;;6651618;88;20246;-74
2021/10/24 15:57:46;;;;;;;5.15;2.20;;;14.00;99.90;;;;;;6646279;88;20785;-75
2021/10/24 16:07:47;;;;;;;5.65;2.50;;;13.40;99.90;;;;;;6662262;88;20238;-75
2021/10/24 16:17:48;;;;;;;5.85;2.65;;;13.10;99.90;;;;;;6644231;89;20172;-74
2021/10/24 16:27:51;;;;;;;5.70;2.37;;;12.60;99.90;;;;;;6686773;88;20225;-76
2021/10/24 16:37:51;;;;;;;4.82;2.08;;;12.30;99.90;;;;;;6723087;88;20204;-76
2021/10/24 16:47:52;;;;;;;5.10;2.25;;;11.90;99.90;;;;;;6644931;89;20200;-76
2021/10/24 17:07:56;;;;;;;7.18;2.40;;;11.30;99.90;;;;;;6655815;88;20546;-78
2021/10/24 17:17:57;;;;;;;6.97;2.37;;;11.10;99.90;;;;;;6658319;88;20235;-79
2021/10/24 17:27:57;;;;;;;6.22;2.40;;;10.90;99.90;;;;;;6670342;88;20598;-78
2021/10/24 17:37:58;;;;;;;6.00;2.05;;;10.70;99.90;;;;;;6653091;88;20716;-78
2021/10/24 17:47:58;;;;;;;8.30;3.08;;;10.60;99.90;;;;;;6651860;88;20187;-79
2021/10/24 17:57:59;;;;;;;5.95;2.95;;;10.40;99.90;;;;;;6651363;88;20688;-79
2021/10/24 18:08:00;;;;;;;6.53;3.17;;;10.40;99.90;;;;;;6651321;88;20687;-78
2021/10/24 18:18:00;;;;;;;4.65;2.90;;;10.30;99.90;;;;;;6656135;88;20216;-80
2021/10/24 18:28:02;;;;;;;5.90;2.85;;;10.20;99.90;;;;;;6658773;88;20268;-77
2021/10/24 18:38:03;;;;;;;5.43;2.40;;;10.00;99.90;;;;;;6661677;88;20762;-80
2021/10/24 18:48:04;;;;;;;9.02;3.12;;;9.90;99.90;;;;;;6676522;88;20630;-79
2021/10/24 18:58:04;;;;;;;8.07;3.30;;;9.80;99.90;;;;;;6665011;88;20247;-79
2021/10/24 19:08:05;;;;;;;7.55;2.97;;;9.70;99.90;;;;;;6666855;88;20191;-79
2021/10/24 19:18:07;;;;;;;4.80;3.37;;;9.50;99.90;;;;;;6678366;88;20220;-80
2021/10/24 19:28:08;;;;;;;6.80;3.20;;;9.40;99.90;;;;;;6664536;88;20197;-80
2021/10/24 19:38:09;;;;;;;7.95;3.40;;;9.20;99.90;;;;;;6674700;88;20200;-80
2021/10/24 19:48:09;;;;;;;5.93;3.10;;;9.10;99.90;;;;;;6661314;88;20649;-79
2021/10/24 19:58:12;;;;;;;9.87;3.93;;;8.90;99.90;;;;;;6652081;88;20505;-80
2021/10/24 20:08:13;;;;;;;8.82;4.45;;;8.70;99.90;;;;;;6653928;88;21303;-80
2021/10/24 20:18:14;;;;;;;8.73;4.20;;;8.60;99.90;;;;;;6657057;88;20193;-81
2021/10/24 20:28:15;;;;;;;9.93;4.55;;;8.40;99.90;;;;;;6655487;89;20316;-80
2021/10/24 20:38:15;;;;;;;10.32;4.55;;;8.20;99.90;;;;;;6658564;89;20204;-80
2021/10/24 20:48:17;;;;;;;9.95;4.22;;;8.20;99.90;;;;;;6658872;88;20243;-79
2021/10/24 20:58:18;;;;;;;11.02;4.50;;;8.20;99.90;;;;;;6677640;88;20244;-78
2021/10/24 21:08:18;;;;;;;8.27;4.10;;;8.20;99.90;;;;;;6670411;88;21132;-79
2021/10/24 21:18:19;;;;;;;8.70;4.17;;;8.30;99.90;;;;;;6667806;88;20207;-79
2021/10/24 21:28:19;;;;;;;6.87;4.07;;;8.30;99.90;;;;;;6651718;88;20564;-79
2021/10/24 21:38:20;;;;;;;7.15;3.70;;;8.30;99.90;;;;;;6657021;88;20218;-77
2021/10/24 21:48:20;;;;;;;10.30;4.07;;;8.20;99.90;;;;;;6657062;88;20338;-79
2021/10/24 21:58:21;;;;;;;8.18;4.22;;;8.20;99.90;;;;;;6658852;88;20219;-79
2021/10/24 22:08:22;;;;;;;9.50;4.30;;;8.20;99.90;;;;;;6660826;89;20330;-80
2021/10/24 22:18:22;;;;;;;6.57;3.40;;;8.20;99.90;;;;;;6639445;88;20399;-76
2021/10/24 22:28:23;;;;;;;9.52;4.03;;;8.20;99.90;;;;;;6638287;88;20702;-77
2021/10/24 22:38:24;;;;;;;9.70;3.83;;;8.00;99.90;;;;;;6652001;88;20205;-77
2021/10/24 22:48:24;;;;;;;8.75;3.90;;;7.90;99.90;;;;;;6639702;89;20204;-78
2021/10/24 22:58:25;;;;;;;8.07;3.80;;;7.80;99.90;;;;;;6653953;77;20650;-74
2021/10/24 23:08:26;;;;;;;7.32;3.85;;;7.70;99.90;;;;;;6627515;89;20198;-74
2021/10/24 23:18:27;;;;;;;9.73;4.30;;;7.50;99.90;;;;;;6624684;89;20201;-74
2021/10/24 23:28:27;;;;;;;10.88;4.62;;;7.60;99.90;;;;;;6610550;89;21020;-74
2021/10/24 23:38:28;;;;;;;10.80;4.20;;;7.50;99.90;;;;;;6668725;88;20201;-75
2021/10/24 23:48:28;;;;;;;7.07;4.07;;;7.30;99.90;;;;;;6712772;88;20202;-74
2021/10/24 23:58:29;;;;;;;6.87;3.83;;;7.00;99.90;;;;;;6699727;88;20227;-74
